Cabot, Arkansas
Current Conditions -  °F | °C
As of 7:58 PM on Saturday 22 Nov 2014 (Local Time) from KLRF Reporting Station
Scattered Clouds Scattered Clouds  
Wind Chill: 56°   Ceiling: Unl
Heat Index: 56°   Visibility: 10mi
Dew Point: 52°   Wind: 3mph
Humidity: 85%   Direction: 100°E
Pressure: 29.96"   Gusts: NA
Location:  34.97°N, 92.02°W
Report Text: KLRF 230158Z AUTO 10003KT 10SM FEW037 SCT045 13/11 A2996 RMK AO2 SLP148 T01340109
Loading
Personal Weather Stations






























Interactive Weather Map New forecast layout! Learn more

10-Day Weather Forecast

Advertisements
Track Severe Weather on mobile